createdAt,value
2022-08-28T00:00:48.347Z,16.63
2022-08-28T00:03:55.947Z,16.49
2022-08-28T00:07:02.257Z,16.61
2022-08-28T00:10:10.959Z,16.98
2022-08-28T00:13:20.620Z,16.57
2022-08-28T00:16:27.682Z,16.70
2022-08-28T00:19:38.640Z,16.75
2022-08-28T00:22:45.793Z,16.33
2022-08-28T00:25:51.956Z,16.10
2022-08-28T00:28:57.281Z,16.62
2022-08-28T00:32:04.058Z,16.91
2022-08-28T00:35:12.508Z,16.08
2022-08-28T00:38:20.318Z,16.64
2022-08-28T00:41:27.457Z,16.51
2022-08-28T00:44:34.543Z,16.17
2022-08-28T00:47:41.149Z,16.14
2022-08-28T00:51:06.337Z,15.78
2022-08-28T00:54:12.661Z,16.35
2022-08-28T00:57:22.711Z,16.33
2022-08-28T01:00:38.407Z,16.47
2022-08-28T01:03:46.065Z,16.33
2022-08-28T01:06:56.781Z,15.79
2022-08-28T01:10:03.223Z,15.56
2022-08-28T01:13:09.843Z,15.08
2022-08-28T01:16:20.909Z,15.55
2022-08-28T01:19:31.660Z,15.52
2022-08-28T01:22:43.737Z,15.41
2022-08-28T01:25:52.606Z,15.38
2022-08-28T01:29:00.680Z,14.82
2022-08-28T01:32:07.753Z,15.48
2022-08-28T01:35:17.616Z,15.44
2022-08-28T01:38:26.810Z,15.66
2022-08-28T01:41:35.630Z,15.91
2022-08-28T01:44:42.107Z,16.03
2022-08-28T01:47:49.242Z,15.34
2022-08-28T01:50:57.373Z,15.83
2022-08-28T01:54:03.690Z,16.17
2022-08-28T01:57:11.532Z,16.04
2022-08-28T02:00:19.480Z,16.11
2022-08-28T02:03:27.033Z,16.32
2022-08-28T02:06:34.037Z,15.66
2022-08-28T02:09:40.292Z,14.90
2022-08-28T02:12:49.420Z,15.00
2022-08-28T02:15:55.859Z,15.38
2022-08-28T02:19:02.313Z,15.12
2022-08-28T02:22:09.574Z,14.97
2022-08-28T02:25:17.430Z,15.63
2022-08-28T02:28:25.103Z,15.98
2022-08-28T02:31:31.304Z,15.96
2022-08-28T02:34:38.344Z,15.94
2022-08-28T02:37:47.735Z,15.15
2022-08-28T02:40:54.129Z,14.96
2022-08-28T02:44:01.750Z,14.78
2022-08-28T02:47:08.005Z,15.00
2022-08-28T02:50:17.426Z,14.35
2022-08-28T02:53:23.887Z,14.09
2022-08-28T02:56:31.118Z,14.56
2022-08-28T02:59:39.635Z,14.32
2022-08-28T03:02:46.706Z,14.29
2022-08-28T03:05:53.240Z,14.22
2022-08-28T03:09:00.478Z,14.56
2022-08-28T03:12:06.990Z,14.42
2022-08-28T03:15:14.831Z,14.40
2022-08-28T03:18:21.994Z,14.85
2022-08-28T03:21:28.658Z,14.65
2022-08-28T03:24:35.231Z,14.80
2022-08-28T03:27:41.718Z,14.49
2022-08-28T03:30:49.941Z,14.59
2022-08-28T03:33:56.579Z,15.00
2022-08-28T03:37:03.288Z,15.25
2022-08-28T03:40:11.678Z,15.40
2022-08-28T03:43:21.023Z,15.46
2022-08-28T03:46:32.888Z,15.14
2022-08-28T03:49:39.280Z,15.40
2022-08-28T03:52:45.523Z,15.34
2022-08-28T03:55:52.250Z,15.22
2022-08-28T03:59:01.762Z,15.16
2022-08-28T04:02:09.571Z,14.57
2022-08-28T04:05:18.318Z,14.47
2022-08-28T04:08:24.603Z,14.88
2022-08-28T04:11:30.978Z,14.59
2022-08-28T04:14:38.019Z,14.64
2022-08-28T04:17:45.548Z,14.49
2022-08-28T04:20:59.474Z,15.01
2022-08-28T04:24:09.526Z,15.29
2022-08-28T04:27:16.277Z,15.44
2022-08-28T04:30:22.879Z,14.66
2022-08-28T04:33:31.348Z,14.36
2022-08-28T04:36:38.414Z,14.08
2022-08-28T04:39:44.684Z,14.13
2022-08-28T04:42:52.608Z,14.37
2022-08-28T04:45:59.045Z,14.38
2022-08-28T04:49:06.691Z,14.71
2022-08-28T04:52:12.727Z,14.89
2022-08-28T04:55:33.764Z,15.05
2022-08-28T04:58:46.098Z,15.27
2022-08-28T05:01:52.249Z,15.70
2022-08-28T05:04:59.938Z,16.43
2022-08-28T05:08:06.020Z,16.52
2022-08-28T05:11:14.391Z,16.13
2022-08-28T05:14:39.794Z,16.38
2022-08-28T05:17:46.374Z,16.94
2022-08-28T05:20:53.888Z,16.83
2022-08-28T05:23:59.938Z,17.16
2022-08-28T05:27:06.675Z,16.96
2022-08-28T05:30:14.611Z,17.50
2022-08-28T05:33:21.455Z,17.68
2022-08-28T05:36:32.465Z,17.57
2022-08-28T05:39:39.277Z,17.89
2022-08-28T05:42:45.784Z,17.91
2022-08-28T05:46:00.362Z,18.74
2022-08-28T05:49:10.224Z,18.83
2022-08-28T05:52:18.379Z,18.45
2022-08-28T05:55:24.861Z,18.90
2022-08-28T05:58:31.468Z,19.33
2022-08-28T06:01:40.817Z,19.67
2022-08-28T06:04:49.177Z,19.32
2022-08-28T06:07:56.982Z,20.06
2022-08-28T06:11:03.467Z,19.61
2022-08-28T06:14:11.173Z,19.53
2022-08-28T06:17:17.738Z,20.32
2022-08-28T06:20:29.908Z,20.16
2022-08-28T06:23:37.142Z,20.42
2022-08-28T06:26:43.555Z,20.01
2022-08-28T06:29:49.483Z,19.87
2022-08-28T06:32:55.646Z,20.59
2022-08-28T06:36:05.787Z,20.67
2022-08-28T06:39:15.459Z,20.58
2022-08-28T06:42:21.987Z,21.08
2022-08-28T06:45:28.195Z,21.13
2022-08-28T06:48:34.770Z,20.67
2022-08-28T06:51:41.742Z,20.98
2022-08-28T06:54:55.474Z,20.62
2022-08-28T06:58:02.151Z,21.85
2022-08-28T07:01:10.614Z,21.64
2022-08-28T07:04:18.703Z,21.70
2022-08-28T07:07:31.498Z,21.29
2022-08-28T07:10:40.805Z,21.83
2022-08-28T07:13:47.919Z,21.63
2022-08-28T07:16:54.407Z,22.17
2022-08-28T07:20:01.035Z,22.81
2022-08-28T07:23:07.427Z,23.19
2022-08-28T07:26:18.368Z,22.26
2022-08-28T07:29:24.976Z,23.15
2022-08-28T07:32:31.476Z,22.91
2022-08-28T07:35:37.664Z,24.12
2022-08-28T07:38:43.812Z,24.21
2022-08-28T07:41:51.442Z,24.12
2022-08-28T07:44:59.330Z,24.16
2022-08-28T07:48:11.300Z,24.18
2022-08-28T07:51:17.991Z,24.74
2022-08-28T07:54:24.564Z,24.91
2022-08-28T07:57:32.755Z,24.61
2022-08-28T08:00:39.254Z,24.58
2022-08-28T08:03:46.004Z,25.51
2022-08-28T08:06:57.741Z,25.02
2022-08-28T08:10:04.363Z,25.63
2022-08-28T08:13:12.435Z,25.84
2022-08-28T08:16:21.742Z,25.28
2022-08-28T08:19:27.839Z,26.21
2022-08-28T08:22:34.912Z,26.42
2022-08-28T08:25:41.255Z,26.74
2022-08-28T08:28:50.619Z,25.83
2022-08-28T08:31:58.265Z,25.81
2022-08-28T08:35:04.416Z,26.14
2022-08-28T08:38:10.786Z,26.11
2022-08-28T08:41:23.470Z,27.09
2022-08-28T08:44:34.804Z,27.25
2022-08-28T08:47:48.731Z,27.12
2022-08-28T08:50:56.697Z,27.39
2022-08-28T08:54:07.525Z,27.09
2022-08-28T08:57:16.294Z,27.12
2022-08-28T09:00:24.282Z,27.14
2022-08-28T09:03:45.749Z,27.72
2022-08-28T09:06:56.369Z,28.08
2022-08-28T09:10:02.444Z,27.69
2022-08-28T09:13:18.956Z,27.89
2022-08-28T09:16:32.393Z,28.95
2022-08-28T09:19:38.893Z,28.53
2022-08-28T09:22:46.595Z,28.09
2022-08-28T09:25:59.746Z,28.62
2022-08-28T09:29:16.076Z,29.01
2022-08-28T09:32:27.738Z,29.02
2022-08-28T09:35:38.460Z,28.90
2022-08-28T09:38:44.917Z,28.79
2022-08-28T09:42:14.523Z,29.27
2022-08-28T09:45:23.883Z,30.16
2022-08-28T09:48:37.782Z,30.79
2022-08-28T09:51:44.466Z,30.09
2022-08-28T09:54:51.519Z,30.77
2022-08-28T09:57:58.247Z,30.28
2022-08-28T10:01:16.813Z,30.69
2022-08-28T10:04:43.148Z,31.71
2022-08-28T10:07:56.195Z,31.60
2022-08-28T10:11:24.713Z,31.22
2022-08-28T10:14:45.894Z,31.43
2022-08-28T10:18:15.355Z,32.16
2022-08-28T10:21:32.083Z,31.66
2022-08-28T10:24:58.183Z,30.99
2022-08-28T10:28:34.664Z,31.39
2022-08-28T10:31:49.060Z,31.55
2022-08-28T10:35:04.380Z,32.30
2022-08-28T10:38:16.358Z,31.72
2022-08-28T10:41:26.777Z,32.20
2022-08-28T10:44:40.407Z,31.76
2022-08-28T10:47:52.631Z,32.55
2022-08-28T10:51:03.967Z,32.64
2022-08-28T10:54:25.531Z,33.24
2022-08-28T10:57:39.753Z,32.27
2022-08-28T11:00:48.094Z,32.35
2022-08-28T11:03:55.770Z,31.93
2022-08-28T11:07:06.139Z,32.71
2022-08-28T11:10:23.293Z,31.83
2022-08-28T11:13:48.208Z,31.40
2022-08-28T11:16:58.189Z,32.35
2022-08-28T11:20:16.924Z,32.59
2022-08-28T11:23:30.012Z,32.67
2022-08-28T11:26:42.938Z,33.02
2022-08-28T11:30:00.178Z,32.65
2022-08-28T11:33:31.827Z,33.71
2022-08-28T11:36:58.894Z,32.97
2022-08-28T11:40:18.505Z,33.50
2022-08-28T11:43:40.465Z,32.10
2022-08-28T11:46:48.811Z,32.71
2022-08-28T11:49:55.057Z,32.62
2022-08-28T11:53:28.337Z,32.88
2022-08-28T11:56:49.027Z,33.56
2022-08-28T12:00:09.429Z,33.38
2022-08-28T12:03:17.904Z,33.81
2022-08-28T12:06:47.196Z,32.34
2022-08-28T12:09:53.876Z,33.00
2022-08-28T12:13:02.273Z,33.80
2022-08-28T12:16:09.944Z,33.38
2022-08-28T12:19:28.915Z,33.46
2022-08-28T12:22:46.335Z,33.87
2022-08-28T12:26:01.824Z,33.99
2022-08-28T12:29:25.499Z,33.32
2022-08-28T12:32:42.111Z,33.73
2022-08-28T12:35:48.519Z,33.15
2022-08-28T12:38:58.121Z,31.44
2022-08-28T12:42:04.654Z,32.89
2022-08-28T12:45:17.033Z,33.76
2022-08-28T12:48:27.762Z,32.93
2022-08-28T12:51:36.228Z,31.57
2022-08-28T12:54:43.032Z,32.15
2022-08-28T12:57:49.575Z,31.70
2022-08-28T13:00:59.807Z,32.29
2022-08-28T13:04:22.975Z,32.61
2022-08-28T13:07:31.799Z,31.82
2022-08-28T13:10:40.683Z,31.83
2022-08-28T13:13:49.983Z,31.80
2022-08-28T13:16:56.637Z,31.31
2022-08-28T13:20:06.811Z,30.09
2022-08-28T13:23:29.892Z,30.37
2022-08-28T13:26:38.746Z,30.07
2022-08-28T13:29:57.398Z,30.04
2022-08-28T13:33:21.160Z,30.06
2022-08-28T13:36:29.039Z,30.33
2022-08-28T13:39:36.967Z,30.32
2022-08-28T13:42:44.095Z,30.43
2022-08-28T13:45:51.244Z,29.96
2022-08-28T13:48:57.601Z,29.91
2022-08-28T13:52:07.800Z,29.81
2022-08-28T13:55:16.309Z,29.95
2022-08-28T13:58:23.316Z,29.04
2022-08-28T14:01:49.784Z,29.07
2022-08-28T14:04:55.788Z,29.11
2022-08-28T14:08:03.975Z,28.31
2022-08-28T14:11:12.977Z,28.65
2022-08-28T14:14:19.362Z,27.97
2022-08-28T14:17:25.852Z,27.07
2022-08-28T14:20:32.663Z,25.79
2022-08-28T14:23:40.190Z,25.85
2022-08-28T14:26:47.324Z,25.25
2022-08-28T14:29:54.240Z,25.08
2022-08-28T14:33:00.592Z,25.20
2022-08-28T14:36:07.063Z,24.19
2022-08-28T14:39:15.364Z,24.42
2022-08-28T14:42:21.765Z,24.15
2022-08-28T14:45:27.942Z,24.55
2022-08-28T14:48:34.820Z,24.65
2022-08-28T14:51:42.977Z,24.94
2022-08-28T14:54:50.436Z,25.54
2022-08-28T14:57:56.790Z,24.75
2022-08-28T15:01:03.375Z,24.38
2022-08-28T15:04:12.187Z,24.23
2022-08-28T15:07:21.330Z,24.23
2022-08-28T15:10:29.603Z,24.57
2022-08-28T15:13:35.978Z,25.25
2022-08-28T15:16:45.927Z,25.51
2022-08-28T15:19:52.763Z,25.94
2022-08-28T15:22:58.839Z,26.03
2022-08-28T15:26:06.732Z,25.82
2022-08-28T15:29:13.124Z,25.57
2022-08-28T15:32:19.632Z,25.82
2022-08-28T15:35:26.175Z,25.85
2022-08-28T15:38:52.886Z,25.40
2022-08-28T15:42:03.035Z,24.54
2022-08-28T15:45:10.076Z,24.59
2022-08-28T15:48:16.388Z,24.83
2022-08-28T15:51:25.885Z,24.49
2022-08-28T15:54:32.641Z,24.65
2022-08-28T15:57:40.707Z,24.73
2022-08-28T16:00:47.275Z,24.53
2022-08-28T16:03:53.572Z,24.72
2022-08-28T16:07:00.899Z,24.78
2022-08-28T16:10:09.651Z,24.47
2022-08-28T16:13:17.994Z,24.04
2022-08-28T16:16:25.217Z,24.19
2022-08-28T16:19:32.485Z,24.10
2022-08-28T16:22:38.963Z,24.14
2022-08-28T16:25:45.322Z,24.15
2022-08-28T16:28:53.301Z,23.72
2022-08-28T16:31:59.461Z,23.78
2022-08-28T16:35:09.095Z,23.48
2022-08-28T16:38:16.116Z,23.40
2022-08-28T16:41:24.794Z,23.51
2022-08-28T16:44:37.114Z,23.24
2022-08-28T16:47:43.364Z,23.05
2022-08-28T16:50:49.708Z,22.80
2022-08-28T16:53:56.426Z,22.96
2022-08-28T16:57:02.894Z,23.31
2022-08-28T17:00:13.947Z,23.29
2022-08-28T17:03:24.400Z,23.20
2022-08-28T17:06:33.817Z,22.97
2022-08-28T17:09:39.710Z,22.60
2022-08-28T17:12:45.805Z,22.49
2022-08-28T17:15:53.754Z,22.59
2022-08-28T17:19:00.846Z,22.42
2022-08-28T17:22:27.286Z,22.31
2022-08-28T17:25:33.958Z,22.26
2022-08-28T17:28:40.583Z,22.06
2022-08-28T17:31:48.341Z,22.24
2022-08-28T17:34:54.647Z,22.31
2022-08-28T17:38:00.755Z,22.14
2022-08-28T17:41:07.371Z,22.20
2022-08-28T17:44:14.545Z,22.26
2022-08-28T17:47:27.488Z,22.03
2022-08-28T17:50:37.319Z,21.83
2022-08-28T17:53:43.548Z,21.66
2022-08-28T17:56:50.719Z,21.52
2022-08-28T17:59:57.485Z,21.53
2022-08-28T18:03:05.358Z,21.29
2022-08-28T18:06:12.216Z,21.09
2022-08-28T18:09:18.992Z,20.96
2022-08-28T18:12:25.389Z,21.01
2022-08-28T18:15:31.773Z,20.75
2022-08-28T18:18:40.124Z,20.85
2022-08-28T18:21:46.867Z,20.90
2022-08-28T18:24:54.101Z,20.84
2022-08-28T18:27:52.628Z,20.80
2022-08-28T18:30:59.921Z,20.64
2022-08-28T18:34:10.098Z,20.70
2022-08-28T18:37:16.678Z,20.58
2022-08-28T18:40:24.710Z,20.50
2022-08-28T18:43:31.510Z,20.43
2022-08-28T18:46:37.941Z,20.58
2022-08-28T18:49:46.213Z,20.48
2022-08-28T18:52:53.563Z,20.36
2022-08-28T18:56:00.259Z,20.46
2022-08-28T18:59:09.339Z,20.13
2022-08-28T19:02:16.913Z,20.20
2022-08-28T19:05:24.962Z,20.19
2022-08-28T19:08:31.674Z,20.13
2022-08-28T19:11:37.943Z,19.93
2022-08-28T19:14:43.808Z,20.18
2022-08-28T19:17:50.535Z,20.13
2022-08-28T19:21:10.590Z,20.12
2022-08-28T19:24:22.593Z,20.06
2022-08-28T19:27:28.807Z,19.90
2022-08-28T19:30:36.112Z,19.82
2022-08-28T19:33:42.539Z,19.90
2022-08-28T19:36:50.227Z,19.66
2022-08-28T19:39:56.688Z,19.63
2022-08-28T19:43:03.383Z,19.61
2022-08-28T19:46:18.723Z,19.50
2022-08-28T19:49:26.736Z,19.57
2022-08-28T19:52:34.872Z,19.58
2022-08-28T19:55:41.423Z,19.71
2022-08-28T19:58:47.868Z,19.64
2022-08-28T20:01:54.389Z,19.50
2022-08-28T20:05:01.327Z,19.60
2022-08-28T20:08:08.967Z,19.50
2022-08-28T20:11:19.725Z,19.12
2022-08-28T20:14:26.258Z,19.27
2022-08-28T20:17:32.968Z,18.77
2022-08-28T20:20:40.126Z,18.38
2022-08-28T20:23:48.699Z,18.75
2022-08-28T20:26:55.350Z,18.60
2022-08-28T20:30:09.469Z,18.64
2022-08-28T20:33:17.247Z,18.72
2022-08-28T20:36:24.119Z,18.53
2022-08-28T20:39:32.008Z,18.55
2022-08-28T20:42:38.308Z,18.70
2022-08-28T20:45:44.358Z,18.92
2022-08-28T20:48:50.689Z,18.33
2022-08-28T20:52:01.348Z,18.05
2022-08-28T20:55:13.128Z,18.11
2022-08-28T20:58:19.610Z,18.46
2022-08-28T21:01:25.924Z,18.72
2022-08-28T21:04:35.095Z,18.75
2022-08-28T21:07:41.615Z,18.54
2022-08-28T21:10:49.042Z,18.58
2022-08-28T21:13:55.535Z,18.68
2022-08-28T21:17:01.921Z,18.72
2022-08-28T21:20:12.026Z,18.81
2022-08-28T21:23:18.295Z,18.72
2022-08-28T21:26:27.364Z,18.86
2022-08-28T21:29:33.590Z,18.64
2022-08-28T21:32:40.165Z,18.62
2022-08-28T21:35:46.524Z,18.74
2022-08-28T21:38:53.007Z,18.79
2022-08-28T21:42:00.867Z,18.17
2022-08-28T21:45:11.692Z,17.94
2022-08-28T21:48:18.576Z,18.35
2022-08-28T21:51:30.638Z,18.31
2022-08-28T21:54:37.288Z,18.53
2022-08-28T21:57:45.019Z,18.23
2022-08-28T22:00:53.227Z,18.44
2022-08-28T22:03:59.890Z,18.39
2022-08-28T22:07:06.671Z,18.35
2022-08-28T22:10:13.506Z,18.26
2022-08-28T22:13:21.338Z,18.28
2022-08-28T22:16:29.241Z,18.01
2022-08-28T22:19:35.809Z,17.41
2022-08-28T22:22:59.391Z,17.52
2022-08-28T22:26:07.620Z,17.85
2022-08-28T22:29:15.664Z,17.72
2022-08-28T22:32:25.776Z,17.13
2022-08-28T22:35:32.372Z,17.47
2022-08-28T22:38:39.170Z,17.67
2022-08-28T22:41:45.834Z,17.84
2022-08-28T22:44:53.398Z,17.90
2022-08-28T22:48:00.024Z,17.95
2022-08-28T22:51:08.678Z,18.11
2022-08-28T22:54:15.154Z,18.15
2022-08-28T22:57:21.975Z,18.11
2022-08-28T23:00:29.794Z,18.34
2022-08-28T23:03:36.595Z,18.43
2022-08-28T23:06:42.774Z,18.43
2022-08-28T23:09:49.377Z,18.26
2022-08-28T23:12:55.806Z,18.25
2022-08-28T23:16:04.355Z,18.04
2022-08-28T23:19:13.088Z,17.92
2022-08-28T23:22:20.272Z,18.08
2022-08-28T23:25:26.531Z,17.92
2022-08-28T23:28:33.042Z,17.83
2022-08-28T23:31:40.949Z,17.72
2022-08-28T23:34:47.422Z,18.07
2022-08-28T23:37:53.559Z,17.80
2022-08-28T23:41:00.607Z,17.44
2022-08-28T23:44:09.207Z,17.93
2022-08-28T23:47:16.973Z,18.10
2022-08-28T23:50:25.198Z,18.20
2022-08-28T23:53:32.064Z,17.72
2022-08-28T23:56:42.099Z,17.71
2022-08-28T23:59:48.348Z,17.68
